sensor_id;sensor_type;location;lat;lon;timestamp;temperature;humidity
27004;DHT22;14546;47.590;19.022;2022-07-29T03:20:17;24.30;50.50
27004;DHT22;14546;47.590;19.022;2022-07-29T03:22:44;20.80;61.20
27004;DHT22;14546;47.590;19.022;2022-07-29T03:25:17;20.50;60.50
27004;DHT22;14546;47.590;19.022;2022-07-29T03:27:43;20.40;60.50
27004;DHT22;14546;47.590;19.022;2022-07-29T03:30:11;20.40;60.50
27004;DHT22;14546;47.590;19.022;2022-07-29T03:32:37;20.40;60.60
27004;DHT22;14546;47.590;19.022;2022-07-29T03:35:05;20.30;60.70
27004;DHT22;14546;47.590;19.022;2022-07-29T03:37:31;20.30;60.80
27004;DHT22;14546;47.590;19.022;2022-07-29T03:39:57;20.20;61.60
27004;DHT22;14546;47.590;19.022;2022-07-29T03:42:26;20.20;61.00
27004;DHT22;14546;47.590;19.022;2022-07-29T03:44:54;20.20;61.40
27004;DHT22;14546;47.590;19.022;2022-07-29T03:47:25;20.10;61.50
27004;DHT22;14546;47.590;19.022;2022-07-29T03:49:56;20.10;61.70
27004;DHT22;14546;47.590;19.022;2022-07-29T03:52:24;20.10;61.80
27004;DHT22;14546;47.590;19.022;2022-07-29T03:54:50;20.10;61.90
27004;DHT22;14546;47.590;19.022;2022-07-29T03:57:16;20.10;62.00
27004;DHT22;14546;47.590;19.022;2022-07-29T03:59:45;20.10;62.00
27004;DHT22;14546;47.590;19.022;2022-07-29T04:02:11;20.10;62.20
27004;DHT22;14546;47.590;19.022;2022-07-29T04:04:38;20.10;62.40
27004;DHT22;14546;47.590;19.022;2022-07-29T04:07:05;20.10;62.50
27004;DHT22;14546;47.590;19.022;2022-07-29T04:09:31;20.10;62.60
27004;DHT22;14546;47.590;19.022;2022-07-29T04:11:57;20.10;62.80
27004;DHT22;14546;47.590;19.022;2022-07-29T04:14:22;20.10;63.00
27004;DHT22;14546;47.590;19.022;2022-07-29T04:16:49;20.10;63.20
27004;DHT22;14546;47.590;19.022;2022-07-29T04:19:15;20.20;63.40
27004;DHT22;14546;47.590;19.022;2022-07-29T04:21:41;20.20;63.60
27004;DHT22;14546;47.590;19.022;2022-07-29T04:24:07;20.20;63.80
27004;DHT22;14546;47.590;19.022;2022-07-29T04:26:34;20.30;64.10
27004;DHT22;14546;47.590;19.022;2022-07-29T04:29:00;20.30;64.30
27004;DHT22;14546;47.590;19.022;2022-07-29T04:31:26;20.30;64.40
27004;DHT22;14546;47.590;19.022;2022-07-29T04:33:52;20.40;64.60
27004;DHT22;14546;47.590;19.022;2022-07-29T04:36:18;20.40;64.70
27004;DHT22;14546;47.590;19.022;2022-07-29T04:38:43;20.50;64.80
27004;DHT22;14546;47.590;19.022;2022-07-29T04:41:09;20.50;64.90
27004;DHT22;14546;47.590;19.022;2022-07-29T04:43:35;20.60;65.10
27004;DHT22;14546;47.590;19.022;2022-07-29T04:46:02;20.60;65.20
27004;DHT22;14546;47.590;19.022;2022-07-29T04:48:29;20.70;65.30
27004;DHT22;14546;47.590;19.022;2022-07-29T04:50:56;20.70;65.40
27004;DHT22;14546;47.590;19.022;2022-07-29T04:53:23;20.80;65.40
27004;DHT22;14546;47.590;19.022;2022-07-29T04:55:49;20.80;65.30
27004;DHT22;14546;47.590;19.022;2022-07-29T04:58:14;20.90;65.30
27004;DHT22;14546;47.590;19.022;2022-07-29T05:00:41;20.90;65.30
27004;DHT22;14546;47.590;19.022;2022-07-29T05:03:07;21.00;65.40
27004;DHT22;14546;47.590;19.022;2022-07-29T05:05:32;21.00;65.40
27004;DHT22;14546;47.590;19.022;2022-07-29T05:07:58;21.10;65.20
27004;DHT22;14546;47.590;19.022;2022-07-29T05:10:25;21.10;65.00
27004;DHT22;14546;47.590;19.022;2022-07-29T05:12:52;21.10;64.90
27004;DHT22;14546;47.590;19.022;2022-07-29T05:15:18;21.20;64.90
27004;DHT22;14546;47.590;19.022;2022-07-29T05:17:44;21.20;65.00
27004;DHT22;14546;47.590;19.022;2022-07-29T05:20:10;21.30;65.20
27004;DHT22;14546;47.590;19.022;2022-07-29T05:22:36;21.30;65.10
27004;DHT22;14546;47.590;19.022;2022-07-29T05:25:02;21.40;65.10
27004;DHT22;14546;47.590;19.022;2022-07-29T05:27:29;21.40;65.00
27004;DHT22;14546;47.590;19.022;2022-07-29T05:29:54;21.50;64.70
27004;DHT22;14546;47.590;19.022;2022-07-29T05:32:21;21.60;63.90
27004;DHT22;14546;47.590;19.022;2022-07-29T05:34:47;21.70;63.30
27004;DHT22;14546;47.590;19.022;2022-07-29T05:37:13;21.80;62.70
27004;DHT22;14546;47.590;19.022;2022-07-29T05:39:39;21.90;62.00
27004;DHT22;14546;47.590;19.022;2022-07-29T05:42:11;22.00;61.80
27004;DHT22;14546;47.590;19.022;2022-07-29T05:44:38;22.10;61.50
27004;DHT22;14546;47.590;19.022;2022-07-29T05:47:05;22.20;61.10
27004;DHT22;14546;47.590;19.022;2022-07-29T05:49:32;22.30;60.70
27004;DHT22;14546;47.590;19.022;2022-07-29T05:51:58;22.40;60.30
27004;DHT22;14546;47.590;19.022;2022-07-29T05:54:24;22.50;59.80
27004;DHT22;14546;47.590;19.022;2022-07-29T05:56:50;22.60;59.50
27004;DHT22;14546;47.590;19.022;2022-07-29T05:59:16;22.70;59.30
27004;DHT22;14546;47.590;19.022;2022-07-29T06:01:41;22.80;58.90
27004;DHT22;14546;47.590;19.022;2022-07-29T06:04:07;22.90;58.50
27004;DHT22;14546;47.590;19.022;2022-07-29T06:06:34;23.00;58.10
27004;DHT22;14546;47.590;19.022;2022-07-29T06:09:00;23.10;57.90
27004;DHT22;14546;47.590;19.022;2022-07-29T06:11:26;23.20;57.80
27004;DHT22;14546;47.590;19.022;2022-07-29T06:13:51;23.30;57.50
27004;DHT22;14546;47.590;19.022;2022-07-29T06:16:18;23.40;57.00
27004;DHT22;14546;47.590;19.022;2022-07-29T06:18:44;23.50;56.70
27004;DHT22;14546;47.590;19.022;2022-07-29T06:21:10;23.60;56.30
27004;DHT22;14546;47.590;19.022;2022-07-29T06:23:39;23.70;56.00
27004;DHT22;14546;47.590;19.022;2022-07-29T06:26:05;23.70;55.80
27004;DHT22;14546;47.590;19.022;2022-07-29T06:28:32;23.80;55.50
27004;DHT22;14546;47.590;19.022;2022-07-29T06:30:58;23.90;55.30
27004;DHT22;14546;47.590;19.022;2022-07-29T06:33:24;23.90;55.00
27004;DHT22;14546;47.590;19.022;2022-07-29T06:35:50;24.00;54.70
27004;DHT22;14546;47.590;19.022;2022-07-29T06:38:16;24.10;54.60
27004;DHT22;14546;47.590;19.022;2022-07-29T06:40:43;24.20;54.50
27004;DHT22;14546;47.590;19.022;2022-07-29T06:43:44;24.30;54.40
27004;DHT22;14546;47.590;19.022;2022-07-29T06:46:14;24.30;54.40
27004;DHT22;14546;47.590;19.022;2022-07-29T06:48:41;24.40;54.30
27004;DHT22;14546;47.590;19.022;2022-07-29T06:51:08;24.50;54.20
27004;DHT22;14546;47.590;19.022;2022-07-29T06:53:35;24.60;53.90
27004;DHT22;14546;47.590;19.022;2022-07-29T06:56:02;24.60;53.80
27004;DHT22;14546;47.590;19.022;2022-07-29T06:58:28;24.70;53.90
27004;DHT22;14546;47.590;19.022;2022-07-29T07:00:55;24.80;53.70
27004;DHT22;14546;47.590;19.022;2022-07-29T07:03:21;24.90;53.50
27004;DHT22;14546;47.590;19.022;2022-07-29T07:05:48;24.90;53.60
27004;DHT22;14546;47.590;19.022;2022-07-29T07:08:14;25.00;53.80
27004;DHT22;14546;47.590;19.022;2022-07-29T07:10:42;25.10;53.60
27004;DHT22;14546;47.590;19.022;2022-07-29T07:13:09;25.20;53.30
27004;DHT22;14546;47.590;19.022;2022-07-29T07:15:36;25.20;53.10
27004;DHT22;14546;47.590;19.022;2022-07-29T07:18:02;25.30;53.10
27004;DHT22;14546;47.590;19.022;2022-07-29T07:20:28;25.30;53.10
27004;DHT22;14546;47.590;19.022;2022-07-29T07:22:54;25.20;52.90
27004;DHT22;14546;47.590;19.022;2022-07-29T07:25:20;25.20;53.10
27004;DHT22;14546;47.590;19.022;2022-07-29T07:27:46;25.30;53.20
27004;DHT22;14546;47.590;19.022;2022-07-29T07:30:12;25.40;53.20
27004;DHT22;14546;47.590;19.022;2022-07-29T07:32:38;25.50;53.20
27004;DHT22;14546;47.590;19.022;2022-07-29T07:35:05;25.60;53.00
27004;DHT22;14546;47.590;19.022;2022-07-29T07:37:31;25.70;52.90
27004;DHT22;14546;47.590;19.022;2022-07-29T07:39:58;25.80;52.80
27004;DHT22;14546;47.590;19.022;2022-07-29T07:42:24;25.90;52.50
27004;DHT22;14546;47.590;19.022;2022-07-29T07:44:49;26.00;52.20
27004;DHT22;14546;47.590;19.022;2022-07-29T07:47:16;26.00;51.70
27004;DHT22;14546;47.590;19.022;2022-07-29T07:49:51;26.00;51.90
27004;DHT22;14546;47.590;19.022;2022-07-29T07:52:18;26.20;51.90
27004;DHT22;14546;47.590;19.022;2022-07-29T07:54:44;26.30;51.70
27004;DHT22;14546;47.590;19.022;2022-07-29T07:57:11;26.30;51.60
27004;DHT22;14546;47.590;19.022;2022-07-29T07:59:38;26.40;51.60
27004;DHT22;14546;47.590;19.022;2022-07-29T08:02:05;26.50;51.50
27004;DHT22;14546;47.590;19.022;2022-07-29T08:04:32;26.60;51.20
27004;DHT22;14546;47.590;19.022;2022-07-29T08:06:58;26.70;51.00
27004;DHT22;14546;47.590;19.022;2022-07-29T08:09:26;26.80;51.20
27004;DHT22;14546;47.590;19.022;2022-07-29T08:11:52;26.90;50.90
27004;DHT22;14546;47.590;19.022;2022-07-29T08:14:18;27.00;50.30
27004;DHT22;14546;47.590;19.022;2022-07-29T08:16:45;27.00;50.30
27004;DHT22;14546;47.590;19.022;2022-07-29T08:19:11;27.10;50.40
27004;DHT22;14546;47.590;19.022;2022-07-29T08:21:37;27.30;50.40
27004;DHT22;14546;47.590;19.022;2022-07-29T17:19:57;27.40;50.20
27004;DHT22;14546;47.590;19.022;2022-07-29T17:22:23;34.10;29.30
27004;DHT22;14546;47.590;19.022;2022-07-29T17:24:49;33.50;28.70
27004;DHT22;14546;47.590;19.022;2022-07-29T17:27:15;33.50;28.90
27004;DHT22;14546;47.590;19.022;2022-07-29T17:29:41;33.30;29.50
27004;DHT22;14546;47.590;19.022;2022-07-29T17:32:09;33.20;29.40
27004;DHT22;14546;47.590;19.022;2022-07-29T17:34:35;33.10;29.90
27004;DHT22;14546;47.590;19.022;2022-07-29T17:37:02;32.90;30.40
27004;DHT22;14546;47.590;19.022;2022-07-29T17:39:28;32.70;31.70
27004;DHT22;14546;47.590;19.022;2022-07-29T17:41:53;32.50;32.70
27004;DHT22;14546;47.590;19.022;2022-07-29T17:44:19;32.30;33.20
27004;DHT22;14546;47.590;19.022;2022-07-29T17:46:45;32.10;33.70
27004;DHT22;14546;47.590;19.022;2022-07-29T17:49:11;31.80;34.10
27004;DHT22;14546;47.590;19.022;2022-07-29T17:51:37;31.60;34.80
27004;DHT22;14546;47.590;19.022;2022-07-29T17:54:03;31.40;35.10
27004;DHT22;14546;47.590;19.022;2022-07-29T17:56:29;31.20;35.50
27004;DHT22;14546;47.590;19.022;2022-07-29T17:58:55;30.90;35.80
27004;DHT22;14546;47.590;19.022;2022-07-29T18:01:21;30.70;36.00
27004;DHT22;14546;47.590;19.022;2022-07-29T18:03:47;30.60;36.10
27004;DHT22;14546;47.590;19.022;2022-07-29T18:06:13;30.40;36.30
27004;DHT22;14546;47.590;19.022;2022-07-29T18:08:39;30.20;36.40
27004;DHT22;14546;47.590;19.022;2022-07-29T18:11:05;30.00;36.60
27004;DHT22;14546;47.590;19.022;2022-07-29T18:13:31;29.90;37.00
27004;DHT22;14546;47.590;19.022;2022-07-29T18:15:57;29.70;37.40
27004;DHT22;14546;47.590;19.022;2022-07-29T18:18:23;29.60;37.60
27004;DHT22;14546;47.590;19.022;2022-07-29T18:20:49;29.40;37.80
27004;DHT22;14546;47.590;19.022;2022-07-29T18:23:15;29.20;38.00
27004;DHT22;14546;47.590;19.022;2022-07-29T18:25:41;29.10;38.50
27004;DHT22;14546;47.590;19.022;2022-07-29T18:28:09;29.00;38.70
27004;DHT22;14546;47.590;19.022;2022-07-29T18:30:34;28.90;38.70
27004;DHT22;14546;47.590;19.022;2022-07-29T18:33:04;28.80;38.50
27004;DHT22;14546;47.590;19.022;2022-07-29T18:35:32;28.70;38.40
27004;DHT22;14546;47.590;19.022;2022-07-29T18:37:58;28.60;38.40
27004;DHT22;14546;47.590;19.022;2022-07-29T18:40:24;28.60;38.50
27004;DHT22;14546;47.590;19.022;2022-07-29T18:42:51;28.70;38.60
27004;DHT22;14546;47.590;19.022;2022-07-29T18:45:17;28.70;38.80
27004;DHT22;14546;47.590;19.022;2022-07-29T18:47:43;28.60;38.90
27004;DHT22;14546;47.590;19.022;2022-07-29T18:50:09;28.60;39.00
27004;DHT22;14546;47.590;19.022;2022-07-29T18:52:35;28.60;39.10
27004;DHT22;14546;47.590;19.022;2022-07-29T18:55:02;28.50;39.10
27004;DHT22;14546;47.590;19.022;2022-07-29T18:57:28;28.50;39.40
27004;DHT22;14546;47.590;19.022;2022-07-29T18:59:54;28.50;39.80
27004;DHT22;14546;47.590;19.022;2022-07-29T19:02:22;28.40;40.00
27004;DHT22;14546;47.590;19.022;2022-07-29T19:04:48;28.40;40.40
27004;DHT22;14546;47.590;19.022;2022-07-29T19:07:16;28.40;40.50
27004;DHT22;14546;47.590;19.022;2022-07-29T19:09:44;28.30;40.50
27004;DHT22;14546;47.590;19.022;2022-07-29T19:12:11;28.30;40.90
27004;DHT22;14546;47.590;19.022;2022-07-29T19:14:38;28.20;40.80
27004;DHT22;14546;47.590;19.022;2022-07-29T19:17:04;28.20;41.00
27004;DHT22;14546;47.590;19.022;2022-07-29T19:19:30;28.10;41.20
27004;DHT22;14546;47.590;19.022;2022-07-29T19:21:56;28.10;41.40
27004;DHT22;14546;47.590;19.022;2022-07-29T19:24:22;28.00;42.00
27004;DHT22;14546;47.590;19.022;2022-07-29T19:26:49;27.90;42.20
27004;DHT22;14546;47.590;19.022;2022-07-29T19:29:15;27.80;42.30
27004;DHT22;14546;47.590;19.022;2022-07-29T19:31:42;27.70;42.50
27004;DHT22;14546;47.590;19.022;2022-07-29T19:34:08;27.60;42.70
27004;DHT22;14546;47.590;19.022;2022-07-29T19:36:34;27.50;42.90
